createdAt,value
2023-02-12T00:01:40.712Z,-0.32
2023-02-12T00:04:09.113Z,-0.33
2023-02-12T00:06:39.282Z,-0.36
2023-02-12T00:09:07.919Z,-0.38
2023-02-12T00:11:36.364Z,-0.39
2023-02-12T00:14:05.724Z,-0.41
2023-02-12T00:16:34.156Z,-0.40
2023-02-12T00:19:02.606Z,-0.39
2023-02-12T00:21:31.070Z,-0.38
2023-02-12T00:23:59.412Z,-0.38
2023-02-12T00:26:28.500Z,-0.39
2023-02-12T00:28:57.102Z,-0.38
2023-02-12T00:31:29.455Z,-0.40
2023-02-12T00:33:59.424Z,-0.42
2023-02-12T00:36:29.488Z,-0.46
2023-02-12T00:38:58.194Z,-0.48
2023-02-12T00:41:30.248Z,-0.49
2023-02-12T00:43:58.811Z,-0.49
2023-02-12T00:46:27.888Z,-0.51
2023-02-12T00:48:56.399Z,-0.50
2023-02-12T00:51:24.899Z,-0.47
2023-02-12T00:53:53.127Z,-0.44
2023-02-12T00:56:21.512Z,-0.43
2023-02-12T00:58:51.093Z,-0.40
2023-02-12T01:01:22.702Z,-0.37
2023-02-12T01:03:51.279Z,-0.33
2023-02-12T01:06:21.230Z,-0.32
2023-02-12T01:08:53.439Z,-0.31
2023-02-12T01:11:22.054Z,-0.30
2023-02-12T01:13:50.741Z,-0.33
2023-02-12T01:16:22.186Z,-0.33
2023-02-12T01:18:55.810Z,-0.33
2023-02-12T01:21:28.129Z,-0.35
2023-02-12T01:23:57.726Z,-0.37
2023-02-12T01:26:27.414Z,-0.37
2023-02-12T01:29:01.412Z,-0.42
2023-02-12T01:31:33.352Z,-0.43
2023-02-12T01:34:05.979Z,-0.42
2023-02-12T01:36:37.536Z,-0.43
2023-02-12T01:39:11.944Z,-0.45
2023-02-12T01:41:45.372Z,-0.46
2023-02-12T01:44:36.957Z,-0.48
2023-02-12T01:47:06.557Z,-0.49
2023-02-12T01:49:40.707Z,-0.51
2023-02-12T01:52:27.552Z,-0.55
2023-02-12T01:55:00.613Z,-0.61
2023-02-12T01:57:32.514Z,-0.63
2023-02-12T02:00:03.784Z,-0.67
2023-02-12T02:02:47.628Z,-0.71
2023-02-12T02:05:24.087Z,-0.72
2023-02-12T02:07:53.900Z,-0.75
2023-02-12T02:10:22.447Z,-0.79
2023-02-12T02:13:09.542Z,-0.81
2023-02-12T02:15:42.145Z,-0.87
2023-02-12T02:18:27.297Z,-0.88
2023-02-12T02:21:40.639Z,-0.88
2023-02-12T02:24:46.114Z,-0.89
2023-02-12T02:27:33.727Z,-0.89
2023-02-12T02:30:35.873Z,-0.86
2023-02-12T02:33:33.490Z,-0.81
2023-02-12T02:36:10.760Z,-0.80
2023-02-12T02:38:55.933Z,-0.80
2023-02-12T02:41:47.779Z,-0.78
2023-02-12T02:44:26.917Z,-0.76
2023-02-12T02:47:00.679Z,-0.72
2023-02-12T02:49:38.375Z,-0.70
2023-02-12T02:52:20.906Z,-0.67
2023-02-12T02:54:54.880Z,-0.64
2023-02-12T02:57:23.128Z,-0.61
2023-02-12T02:59:58.474Z,-0.60
2023-02-12T03:02:35.964Z,-0.58
2023-02-12T03:05:17.835Z,-0.60
2023-02-12T03:07:53.919Z,-0.61
2023-02-12T03:10:32.767Z,-0.61
2023-02-12T03:13:11.353Z,-0.65
2023-02-12T03:15:44.631Z,-0.68
2023-02-12T03:18:36.566Z,-0.69
2023-02-12T03:21:11.598Z,-0.70
2023-02-12T03:23:48.330Z,-0.71
2023-02-12T03:26:22.436Z,-0.72
2023-02-12T03:28:53.212Z,-0.75
2023-02-12T03:31:30.660Z,-0.78
2023-02-12T03:34:25.092Z,-0.80
2023-02-12T03:37:02.495Z,-0.84
2023-02-12T03:39:35.485Z,-0.85
2023-02-12T03:42:19.102Z,-0.87
2023-02-12T03:44:49.520Z,-0.88
2023-02-12T03:47:20.903Z,-0.90
2023-02-12T03:50:01.523Z,-0.94
2023-02-12T03:52:31.084Z,-1.03
2023-02-12T03:54:59.527Z,-1.11
2023-02-12T03:57:34.216Z,-1.12
2023-02-12T04:00:07.501Z,-1.17
2023-02-12T04:02:43.641Z,-1.23
2023-02-12T04:05:22.132Z,-1.27
2023-02-12T04:07:52.640Z,-1.28
2023-02-12T04:10:30.252Z,-1.27
2023-02-12T04:13:19.655Z,-1.25
2023-02-12T04:16:11.965Z,-1.26
2023-02-12T04:18:46.826Z,-1.29
2023-02-12T04:21:21.329Z,-1.29
2023-02-12T04:24:35.702Z,-1.31
2023-02-12T04:27:19.198Z,-1.33
2023-02-12T04:29:50.160Z,-1.30
2023-02-12T04:32:25.109Z,-1.30
2023-02-12T04:35:04.510Z,-1.28
2023-02-12T04:37:43.778Z,-1.28
2023-02-12T04:40:18.290Z,-1.28
2023-02-12T04:42:49.729Z,-1.29
2023-02-12T04:45:26.690Z,-1.32
2023-02-12T04:47:55.851Z,-1.32
2023-02-12T04:50:24.317Z,-1.34
2023-02-12T04:52:55.988Z,-1.36
2023-02-12T04:55:24.196Z,-1.43
2023-02-12T04:57:52.304Z,-1.48
2023-02-12T05:00:20.964Z,-1.52
2023-02-12T05:02:49.088Z,-1.55
2023-02-12T05:05:18.571Z,-1.57
2023-02-12T05:07:50.055Z,-1.62
2023-02-12T05:10:18.277Z,-1.63
2023-02-12T05:12:46.879Z,-1.68
2023-02-12T05:15:15.297Z,-1.71
2023-02-12T05:17:44.988Z,-1.72
2023-02-12T05:20:14.088Z,-1.74
2023-02-12T05:22:42.297Z,-1.78
2023-02-12T05:25:10.483Z,-1.79
2023-02-12T05:27:38.977Z,-1.80
2023-02-12T05:30:09.588Z,-1.80
2023-02-12T05:32:37.999Z,-1.80
2023-02-12T05:35:07.036Z,-1.78
2023-02-12T05:37:37.041Z,-1.78
2023-02-12T05:40:09.266Z,-1.79
2023-02-12T05:42:37.804Z,-1.79
2023-02-12T05:45:06.820Z,-1.77
2023-02-12T05:47:38.580Z,-1.77
2023-02-12T05:50:07.603Z,-1.74
2023-02-12T05:52:38.083Z,-1.73
2023-02-12T05:55:07.126Z,-1.72
2023-02-12T05:57:35.452Z,-1.69
2023-02-12T06:00:06.548Z,-1.69
2023-02-12T06:02:42.863Z,-1.68
2023-02-12T06:05:11.460Z,-1.67
2023-02-12T06:07:40.033Z,-1.67
2023-02-12T06:10:12.250Z,-1.67
2023-02-12T06:12:40.781Z,-1.66
2023-02-12T06:15:09.238Z,-1.64
2023-02-12T06:17:37.614Z,-1.60
2023-02-12T06:20:06.524Z,-1.54
2023-02-12T06:22:34.869Z,-1.47
2023-02-12T06:25:05.626Z,-1.41
2023-02-12T06:27:33.752Z,-1.32
2023-02-12T06:30:02.260Z,-1.26
2023-02-12T06:32:30.936Z,-1.16
2023-02-12T06:34:59.271Z,-1.08
2023-02-12T06:37:30.495Z,-0.99
2023-02-12T06:39:58.987Z,-0.91
2023-02-12T06:42:27.384Z,-0.86
2023-02-12T06:44:55.818Z,-0.85
2023-02-12T06:47:27.788Z,-0.84
2023-02-12T06:49:56.131Z,-0.86
2023-02-12T06:52:30.787Z,-0.84
2023-02-12T06:54:59.069Z,-0.85
2023-02-12T06:57:29.868Z,-0.83
2023-02-12T06:59:58.420Z,-0.78
2023-02-12T07:02:26.871Z,-0.76
2023-02-12T07:04:55.709Z,-0.78
2023-02-12T07:07:24.248Z,-0.77
2023-02-12T07:09:52.555Z,-0.78
2023-02-12T07:12:20.841Z,-0.77
2023-02-12T07:14:49.171Z,-0.75
2023-02-12T07:17:17.341Z,-0.77
2023-02-12T07:19:50.954Z,-0.79
2023-02-12T07:22:19.132Z,-0.78
2023-02-12T07:24:47.582Z,-0.79
2023-02-12T07:27:16.018Z,-0.76
2023-02-12T07:29:44.651Z,-0.74
2023-02-12T07:32:13.420Z,-0.73
2023-02-12T07:34:41.704Z,-0.68
2023-02-12T07:37:10.405Z,-0.66
2023-02-12T07:39:38.990Z,-0.65
2023-02-12T07:42:09.058Z,-0.64
2023-02-12T07:44:37.547Z,-0.60
2023-02-12T07:47:06.194Z,-0.56
2023-02-12T07:49:34.572Z,-0.53
2023-02-12T07:52:03.408Z,-0.50
2023-02-12T07:54:31.911Z,-0.48
2023-02-12T07:57:00.715Z,-0.45
2023-02-12T07:59:28.910Z,-0.41
2023-02-12T08:01:58.478Z,-0.36
2023-02-12T08:04:27.138Z,-0.32
2023-02-12T08:06:56.636Z,-0.25
2023-02-12T08:09:27.748Z,-0.17
2023-02-12T08:11:55.931Z,-0.08
2023-02-12T08:14:24.332Z,0.01
2023-02-12T08:16:53.096Z,0.11
2023-02-12T08:19:26.550Z,0.23
2023-02-12T08:21:56.706Z,0.32
2023-02-12T08:24:28.474Z,0.41
2023-02-12T08:26:56.893Z,0.40
2023-02-12T08:29:30.695Z,0.41
2023-02-12T08:32:00.419Z,0.46
2023-02-12T08:34:32.683Z,0.53
2023-02-12T08:37:01.835Z,0.56
2023-02-12T08:39:30.507Z,0.58
2023-02-12T08:42:00.396Z,0.64
2023-02-12T08:44:29.718Z,0.70
2023-02-12T08:46:58.643Z,0.75
2023-02-12T08:49:29.346Z,0.82
2023-02-12T08:51:59.444Z,0.88
2023-02-12T08:54:29.264Z,0.98
2023-02-12T08:57:00.293Z,1.04
2023-02-12T08:59:28.862Z,1.10
2023-02-12T09:02:00.671Z,1.15
2023-02-12T09:04:29.688Z,1.16
2023-02-12T09:07:00.549Z,1.21
2023-02-12T09:09:28.914Z,1.26
2023-02-12T09:11:59.590Z,1.30
2023-02-12T09:14:27.727Z,1.33
2023-02-12T09:16:57.448Z,1.39
2023-02-12T09:19:28.002Z,1.43
2023-02-12T09:21:57.125Z,1.47
2023-02-12T09:24:27.631Z,1.53
2023-02-12T09:26:56.844Z,1.58
2023-02-12T09:29:25.246Z,1.65
2023-02-12T09:31:53.895Z,1.73
2023-02-12T09:34:22.476Z,1.78
2023-02-12T09:36:51.054Z,1.90
2023-02-12T09:39:20.882Z,2.01
2023-02-12T09:42:36.683Z,2.13
2023-02-12T09:45:24.306Z,2.27
2023-02-12T09:48:22.780Z,2.38
2023-02-12T09:50:59.964Z,2.49
2023-02-12T09:53:35.102Z,2.49
2023-02-12T09:56:03.788Z,2.48
2023-02-12T09:58:50.334Z,2.52
2023-02-12T10:01:23.267Z,2.55
2023-02-12T10:03:52.946Z,2.62
2023-02-12T10:06:27.375Z,2.68
2023-02-12T10:08:58.624Z,2.74
2023-02-12T10:11:59.038Z,2.79
2023-02-12T10:14:41.931Z,2.85
2023-02-12T10:17:31.900Z,2.89
2023-02-12T10:20:28.570Z,2.94
2023-02-12T10:23:46.477Z,2.96
2023-02-12T10:26:26.092Z,3.00
2023-02-12T10:28:59.260Z,3.06
2023-02-12T10:31:45.044Z,3.12
2023-02-12T10:34:21.251Z,3.15
2023-02-12T10:36:58.214Z,3.10
2023-02-12T10:39:32.024Z,3.05
2023-02-12T10:42:21.584Z,3.06
2023-02-12T10:44:53.410Z,3.12
2023-02-12T10:47:24.131Z,3.18
2023-02-12T10:50:02.778Z,3.25
2023-02-12T10:52:55.375Z,3.35
2023-02-12T10:55:27.642Z,3.43
2023-02-12T10:58:03.126Z,3.53
2023-02-12T11:00:43.472Z,3.59
2023-02-12T11:03:23.334Z,3.65
2023-02-12T11:05:57.253Z,3.64
2023-02-12T11:08:36.241Z,3.67
2023-02-12T11:11:34.216Z,3.75
2023-02-12T11:14:16.669Z,3.87
2023-02-12T11:16:53.771Z,3.92
2023-02-12T11:19:28.024Z,3.96
2023-02-12T11:22:18.911Z,4.01
2023-02-12T11:25:02.116Z,4.03
2023-02-12T11:27:32.708Z,4.08
2023-02-12T11:30:33.016Z,4.18
2023-02-12T11:33:41.428Z,4.23
2023-02-12T11:36:43.994Z,4.28
2023-02-12T11:39:36.603Z,4.31
2023-02-12T11:42:29.213Z,4.38
2023-02-12T11:44:59.991Z,4.43
2023-02-12T11:47:36.294Z,4.47
2023-02-12T11:50:26.669Z,4.56
2023-02-12T11:53:04.710Z,4.68
2023-02-12T11:55:36.824Z,4.75
2023-02-12T11:58:26.812Z,4.84
2023-02-12T12:01:19.562Z,4.97
2023-02-12T12:04:14.215Z,4.98
2023-02-12T12:07:04.008Z,5.08
2023-02-12T12:09:49.668Z,5.13
2023-02-12T12:12:58.661Z,5.17
2023-02-12T12:15:57.385Z,5.30
2023-02-12T12:18:54.541Z,5.40
2023-02-12T12:21:34.665Z,5.51
2023-02-12T12:24:29.491Z,5.69
2023-02-12T12:27:24.596Z,5.90
2023-02-12T12:30:06.823Z,6.12
2023-02-12T12:32:38.979Z,6.26
2023-02-12T12:35:13.890Z,6.31
2023-02-12T12:37:55.022Z,6.44
2023-02-12T12:40:48.571Z,6.53
2023-02-12T12:43:30.351Z,6.60
2023-02-12T12:46:07.322Z,6.78
2023-02-12T12:49:28.684Z,6.95
2023-02-12T12:52:17.037Z,7.04
2023-02-12T12:55:21.574Z,7.25
2023-02-12T12:57:56.958Z,7.48
2023-02-12T13:00:52.793Z,7.53
2023-02-12T13:03:38.894Z,7.71
2023-02-12T13:06:28.240Z,7.81
2023-02-12T13:09:21.609Z,7.94
2023-02-12T13:12:15.426Z,8.06
2023-02-12T13:15:03.363Z,8.10
2023-02-12T13:17:54.834Z,8.20
2023-02-12T13:20:40.799Z,8.13
2023-02-12T13:23:23.163Z,8.21
2023-02-12T13:26:36.030Z,8.27
2023-02-12T13:29:19.614Z,8.30
2023-02-12T13:31:57.709Z,8.33
2023-02-12T13:34:29.850Z,8.43
2023-02-12T13:37:01.765Z,8.60
2023-02-12T13:39:35.675Z,8.65
2023-02-12T13:42:19.917Z,8.77
2023-02-12T13:45:00.905Z,8.84
2023-02-12T13:47:51.515Z,8.87
2023-02-12T13:50:47.382Z,8.85
2023-02-12T13:53:32.551Z,8.94
2023-02-12T13:56:16.184Z,8.93
2023-02-12T13:58:51.277Z,8.82
2023-02-12T14:01:46.795Z,8.85
2023-02-12T14:04:21.544Z,8.88
2023-02-12T14:07:15.588Z,8.91
2023-02-12T14:10:01.458Z,8.80
2023-02-12T14:12:35.248Z,8.59
2023-02-12T14:15:11.426Z,8.36
2023-02-12T14:17:52.153Z,8.15
2023-02-12T14:20:28.832Z,8.00
2023-02-12T14:23:01.767Z,7.88
2023-02-12T14:25:45.867Z,7.67
2023-02-12T14:28:56.349Z,7.53
2023-02-12T14:31:27.877Z,7.32
2023-02-12T14:34:06.126Z,7.21
2023-02-12T14:36:43.926Z,7.00
2023-02-12T14:39:45.685Z,6.86
2023-02-12T14:42:16.698Z,6.65
2023-02-12T14:44:48.073Z,6.49
2023-02-12T14:47:36.486Z,6.35
2023-02-12T14:50:23.043Z,6.22
2023-02-12T14:53:06.620Z,6.05
2023-02-12T14:55:36.065Z,5.92
2023-02-12T14:58:25.071Z,5.79
2023-02-12T15:00:56.829Z,5.65
2023-02-12T15:03:43.860Z,5.54
2023-02-12T15:06:34.321Z,5.39
2023-02-12T15:09:10.245Z,5.25
2023-02-12T15:12:00.501Z,5.14
2023-02-12T15:14:35.123Z,5.03
2023-02-12T15:17:22.364Z,4.90
2023-02-12T15:20:09.564Z,4.78
2023-02-12T15:22:42.097Z,4.65
2023-02-12T15:25:39.025Z,4.53
2023-02-12T15:28:21.045Z,4.37
2023-02-12T15:31:00.367Z,4.22
2023-02-12T15:33:35.272Z,4.07
2023-02-12T15:36:04.612Z,3.95
2023-02-12T15:38:41.668Z,3.82
2023-02-12T15:41:43.916Z,3.68
2023-02-12T15:44:30.918Z,3.51
2023-02-12T15:47:12.202Z,3.37
2023-02-12T15:49:42.170Z,3.24
2023-02-12T15:52:19.157Z,3.12
2023-02-12T15:54:48.661Z,2.97
2023-02-12T15:57:24.103Z,2.83
2023-02-12T16:00:10.222Z,2.68
2023-02-12T16:02:44.453Z,2.52
2023-02-12T16:05:16.999Z,2.38
2023-02-12T16:07:46.860Z,2.25
2023-02-12T16:10:20.851Z,2.13
2023-02-12T16:12:51.269Z,2.00
2023-02-12T16:15:34.524Z,1.88
2023-02-12T16:18:05.499Z,1.75
2023-02-12T16:20:35.037Z,1.63
2023-02-12T16:23:07.452Z,1.53
2023-02-12T16:25:35.812Z,1.43
2023-02-12T16:28:15.833Z,1.32
2023-02-12T16:30:48.508Z,1.22
2023-02-12T16:33:57.892Z,1.13
2023-02-12T16:36:26.067Z,1.03
2023-02-12T16:39:08.584Z,0.93
2023-02-12T16:41:57.600Z,0.85
2023-02-12T16:44:27.581Z,0.76
2023-02-12T16:46:59.069Z,0.70
2023-02-12T16:49:27.757Z,0.64
2023-02-12T16:52:20.877Z,0.57
2023-02-12T16:54:49.171Z,0.49
2023-02-12T16:57:17.432Z,0.42
2023-02-12T16:59:48.895Z,0.35
2023-02-12T17:02:17.423Z,0.27
2023-02-12T17:04:45.944Z,0.18
2023-02-12T17:07:28.548Z,0.12
2023-02-12T17:09:57.556Z,0.05
2023-02-12T17:12:26.670Z,-0.01
2023-02-12T17:14:56.078Z,-0.12
2023-02-12T17:17:24.316Z,-0.23
2023-02-12T17:19:53.413Z,-0.30
2023-02-12T17:22:24.591Z,-0.36
2023-02-12T17:24:53.527Z,-0.45
2023-02-12T17:27:22.122Z,-0.49
2023-02-12T17:29:50.558Z,-0.56
2023-02-12T17:32:21.538Z,-0.63
2023-02-12T17:34:52.280Z,-0.69
2023-02-12T17:37:22.446Z,-0.74
2023-02-12T17:39:50.830Z,-0.77
2023-02-12T17:42:21.440Z,-0.78
2023-02-12T17:44:50.023Z,-0.79
2023-02-12T17:47:18.248Z,-0.81
2023-02-12T17:49:49.352Z,-0.79
2023-02-12T17:52:17.740Z,-0.78
2023-02-12T17:54:46.766Z,-0.76
2023-02-12T17:57:15.119Z,-0.74
2023-02-12T17:59:43.592Z,-0.73
2023-02-12T18:02:12.494Z,-0.71
2023-02-12T18:04:44.036Z,-0.69
2023-02-12T18:07:12.650Z,-0.65
2023-02-12T18:09:41.239Z,-0.64
2023-02-12T18:12:09.895Z,-0.65
2023-02-12T18:14:38.731Z,-0.67
2023-02-12T18:17:09.482Z,-0.66
2023-02-12T18:19:37.932Z,-0.66
2023-02-12T18:22:06.235Z,-0.69
2023-02-12T18:24:35.219Z,-0.75
2023-02-12T18:27:03.531Z,-0.81
2023-02-12T18:29:31.995Z,-0.87
2023-02-12T18:32:00.866Z,-0.91
2023-02-12T18:34:29.091Z,-0.98
2023-02-12T18:36:57.872Z,-1.03
2023-02-12T18:39:26.248Z,-1.09
2023-02-12T18:41:54.413Z,-1.15
2023-02-12T18:44:23.068Z,-1.22
2023-02-12T18:46:51.494Z,-1.29
2023-02-12T18:49:19.794Z,-1.35
2023-02-12T18:51:48.026Z,-1.41
2023-02-12T18:54:16.209Z,-1.46
2023-02-12T18:56:48.340Z,-1.50
2023-02-12T18:59:21.212Z,-1.53
2023-02-12T19:01:51.215Z,-1.55
2023-02-12T19:04:22.034Z,-1.58
2023-02-12T19:06:54.713Z,-1.62
2023-02-12T19:09:24.938Z,-1.65
2023-02-12T19:11:55.970Z,-1.68
2023-02-12T19:14:27.512Z,-1.70
2023-02-12T19:16:56.018Z,-1.74
2023-02-12T19:19:25.000Z,-1.78
2023-02-12T19:21:53.521Z,-1.82
2023-02-12T19:24:22.001Z,-1.87
2023-02-12T19:26:54.005Z,-1.91
2023-02-12T19:29:22.728Z,-1.95
2023-02-12T19:31:51.141Z,-1.97
2023-02-12T19:34:22.330Z,-2.01
2023-02-12T19:36:51.105Z,-2.03
2023-02-12T19:39:23.820Z,-2.08
2023-02-12T19:41:52.406Z,-2.11
2023-02-12T19:44:24.027Z,-2.16
2023-02-12T19:46:53.413Z,-2.18
2023-02-12T19:49:24.247Z,-2.21
2023-02-12T19:51:52.909Z,-2.23
2023-02-12T19:54:22.620Z,-2.24
2023-02-12T19:56:52.914Z,-2.25
2023-02-12T19:59:23.988Z,-2.25
2023-02-12T20:01:52.881Z,-2.24
2023-02-12T20:04:23.771Z,-2.22
2023-02-12T20:06:52.844Z,-2.21
2023-02-12T20:09:22.946Z,-2.18
2023-02-12T20:11:51.945Z,-2.14
2023-02-12T20:14:22.959Z,-2.12
2023-02-12T20:16:54.790Z,-2.11
2023-02-12T20:19:27.175Z,-2.07
2023-02-12T20:21:57.674Z,-2.06
2023-02-12T20:24:30.996Z,-2.05
2023-02-12T20:27:01.375Z,-2.05
2023-02-12T20:29:30.126Z,-2.04
2023-02-12T20:31:58.640Z,-2.04
2023-02-12T20:34:27.326Z,-2.03
2023-02-12T20:36:55.958Z,-2.03
2023-02-12T20:39:24.566Z,-2.06
2023-02-12T20:41:53.108Z,-2.07
2023-02-12T20:44:22.685Z,-2.09
2023-02-12T20:46:56.455Z,-2.15
2023-02-12T20:49:26.896Z,-2.20
2023-02-12T20:51:55.538Z,-2.26
2023-02-12T20:54:24.064Z,-2.30
2023-02-12T20:56:52.443Z,-2.35
2023-02-12T20:59:20.860Z,-2.41
2023-02-12T21:01:49.278Z,-2.46
2023-02-12T21:04:19.281Z,-2.51
2023-02-12T21:06:48.698Z,-2.56
2023-02-12T21:09:19.181Z,-2.59
2023-02-12T21:11:48.452Z,-2.64
2023-02-12T21:14:23.244Z,-2.69
2023-02-12T21:16:55.014Z,-2.73
2023-02-12T21:19:23.989Z,-2.79
2023-02-12T21:21:52.977Z,-2.86
2023-02-12T21:24:26.558Z,-2.90
2023-02-12T21:26:56.764Z,-2.96
2023-02-12T21:29:27.611Z,-2.99
2023-02-12T21:31:56.176Z,-3.03
2023-02-12T21:34:24.597Z,-3.04
2023-02-12T21:36:55.455Z,-3.05
2023-02-12T21:39:27.785Z,-3.07
2023-02-12T21:42:03.197Z,-3.09
2023-02-12T21:44:35.566Z,-3.11
2023-02-12T21:47:04.826Z,-3.14
2023-02-12T21:49:33.047Z,-3.18
2023-02-12T21:52:03.637Z,-3.21
2023-02-12T21:54:32.312Z,-3.23
2023-02-12T21:57:00.848Z,-3.26
2023-02-12T21:59:31.933Z,-3.28
2023-02-12T22:02:00.919Z,-3.30
2023-02-12T22:04:29.529Z,-3.30
2023-02-12T22:06:59.786Z,-3.31
2023-02-12T22:09:28.110Z,-3.32
2023-02-12T22:11:56.399Z,-3.31
2023-02-12T22:14:24.544Z,-3.31
2023-02-12T22:16:52.938Z,-3.32
2023-02-12T22:19:21.501Z,-3.36
2023-02-12T22:21:53.653Z,-3.37
2023-02-12T22:24:22.128Z,-3.36
2023-02-12T22:26:50.511Z,-3.36
2023-02-12T22:29:18.718Z,-3.37
2023-02-12T22:31:47.747Z,-3.39
2023-02-12T22:34:19.106Z,-3.44
2023-02-12T22:36:48.340Z,-3.44
2023-02-12T22:39:17.752Z,-3.41
2023-02-12T22:41:49.386Z,-3.40
2023-02-12T22:44:21.436Z,-3.38
2023-02-12T22:46:50.365Z,-3.37
2023-02-12T22:49:19.032Z,-3.38
2023-02-12T22:51:47.659Z,-3.40
2023-02-12T22:54:17.861Z,-3.42
2023-02-12T22:56:50.308Z,-3.46
2023-02-12T22:59:18.957Z,-3.51
2023-02-12T23:01:47.201Z,-3.61
2023-02-12T23:04:18.255Z,-3.67
2023-02-12T23:06:47.211Z,-3.71
2023-02-12T23:09:19.167Z,-3.76
2023-02-12T23:11:51.717Z,-3.78
2023-02-12T23:14:19.925Z,-3.84
2023-02-12T23:16:48.687Z,-3.88
2023-02-12T23:19:16.861Z,-3.90
2023-02-12T23:21:45.123Z,-3.92
2023-02-12T23:24:14.867Z,-3.95
2023-02-12T23:26:43.516Z,-3.97
2023-02-12T23:29:11.928Z,-4.00
2023-02-12T23:31:40.196Z,-4.04
2023-02-12T23:34:08.659Z,-4.06
2023-02-12T23:36:36.992Z,-4.10
2023-02-12T23:39:06.182Z,-4.13
2023-02-12T23:41:35.332Z,-4.17
2023-02-12T23:44:04.285Z,-4.20
2023-02-12T23:46:32.368Z,-4.21
2023-02-12T23:49:00.553Z,-4.22
2023-02-12T23:51:29.270Z,-4.23
2023-02-12T23:53:57.503Z,-4.25
2023-02-12T23:56:26.241Z,-4.24
2023-02-12T23:58:57.687Z,-4.25
